Time;durP1;ratioP1;P1;durP2;ratioP2;P2;SDS_P1;SDS_P2;PMS_P1;PMS_P2;Temp;Humidity;BMP_temperature;BMP_pressure;BME280_temperature;BME280_humidity;BME280_pressure;Samples;Min_cycle;Max_cycle;Signal;HPM_P1;HPM_P2
2023/01/06 00:01:06;;;;;;;4.60;2.30;;;10.20;44.00;;;;;;5018406;28;20483;-73
2023/01/06 00:03:33;;;;;;;5.50;2.33;;;10.20;43.90;;;;;;5018181;28;20455;-73
2023/01/06 00:06:03;;;;;;;6.87;3.13;;;10.20;43.60;;;;;;5023264;28;20917;-73
2023/01/06 00:08:30;;;;;;;5.20;2.33;;;10.30;43.60;;;;;;5021082;28;21061;-72
2023/01/06 00:10:57;;;;;;;5.20;2.30;;;10.20;43.50;;;;;;5018555;28;20491;-73
2023/01/06 00:13:24;;;;;;;6.60;2.80;;;10.30;43.80;;;;;;5021935;28;20911;-73
2023/01/06 00:15:51;;;;;;;8.43;2.90;;;10.30;43.70;;;;;;5017501;28;20545;-73
2023/01/06 00:18:18;;;;;;;5.13;2.20;;;10.30;43.80;;;;;;5023381;28;20452;-73
2023/01/06 00:20:44;;;;;;;5.83;2.60;;;10.30;43.80;;;;;;5021513;28;20564;-74
2023/01/06 00:23:13;;;;;;;5.23;2.20;;;10.30;43.80;;;;;;5021225;28;20447;-73
2023/01/06 00:25:40;;;;;;;5.70;2.83;;;10.30;43.70;;;;;;5022614;28;20475;-73
2023/01/06 00:28:06;;;;;;;5.27;2.73;;;10.30;43.80;;;;;;5019118;28;20469;-73
2023/01/06 00:30:33;;;;;;;7.60;2.93;;;10.30;43.70;;;;;;5018856;28;20760;-73
2023/01/06 00:33:00;;;;;;;5.80;2.40;;;10.30;43.60;;;;;;5016877;28;21337;-74
2023/01/06 00:35:27;;;;;;;6.13;2.63;;;10.30;43.60;;;;;;5016177;28;20456;-74
2023/01/06 00:37:54;;;;;;;4.87;2.37;;;10.40;43.60;;;;;;5017717;28;20474;-72
2023/01/06 00:40:22;;;;;;;5.13;2.63;;;10.40;43.70;;;;;;5018402;28;20483;-73
2023/01/06 00:42:49;;;;;;;5.73;3.03;;;10.40;43.70;;;;;;5018548;28;20458;-73
2023/01/06 00:45:16;;;;;;;5.60;2.73;;;10.40;43.50;;;;;;5017357;28;21055;-73
2023/01/06 00:47:43;;;;;;;6.93;3.00;;;10.40;43.50;;;;;;5022122;28;20463;-73
2023/01/06 00:50:11;;;;;;;7.50;2.70;;;10.40;43.50;;;;;;5023959;28;20489;-72
2023/01/06 00:52:38;;;;;;;6.83;3.13;;;10.40;43.40;;;;;;5021168;28;20869;-73
2023/01/06 00:55:06;;;;;;;6.37;3.30;;;10.40;43.40;;;;;;5025680;28;20455;-73
2023/01/06 00:57:34;;;;;;;6.20;3.53;;;10.40;43.50;;;;;;5021329;28;20505;-73
2023/01/06 01:00:04;;;;;;;6.90;4.00;;;10.30;43.50;;;;;;5023773;28;20566;-72
2023/01/06 01:02:31;;;;;;;8.73;4.17;;;10.30;43.50;;;;;;5020566;28;20486;-73
2023/01/06 01:04:58;;;;;;;7.50;4.77;;;10.30;43.40;;;;;;5022817;28;20542;-73
2023/01/06 01:07:25;;;;;;;7.93;4.60;;;10.30;43.30;;;;;;5024458;28;20462;-73
2023/01/06 01:09:52;;;;;;;7.20;4.27;;;10.30;43.30;;;;;;5022780;28;20850;-72
2023/01/06 01:12:19;;;;;;;6.70;4.00;;;10.30;43.40;;;;;;5023641;28;20466;-72
2023/01/06 01:14:49;;;;;;;10.43;4.07;;;10.30;43.30;;;;;;5020571;28;20463;-73
2023/01/06 01:17:19;;;;;;;6.40;4.17;;;10.30;43.30;;;;;;5025519;28;20463;-73
2023/01/06 01:19:46;;;;;;;6.73;3.90;;;10.20;43.30;;;;;;5023986;28;20457;-73
2023/01/06 01:22:14;;;;;;;6.70;4.13;;;10.20;43.40;;;;;;5025829;28;20467;-73
2023/01/06 01:24:41;;;;;;;6.73;4.00;;;10.20;43.50;;;;;;5021877;28;20574;-73
2023/01/06 01:27:20;;;;;;;6.70;3.73;;;10.20;43.70;;;;;;5025650;28;20533;-73
2023/01/06 01:29:48;;;;;;;6.30;3.60;;;10.30;44.00;;;;;;5023178;28;21048;-74
2023/01/06 01:32:15;;;;;;;6.33;3.63;;;10.30;43.90;;;;;;5020980;28;20474;-73
2023/01/06 01:34:43;;;;;;;7.03;4.40;;;10.30;44.00;;;;;;5021265;28;20990;-73
2023/01/06 01:37:10;;;;;;;7.17;3.90;;;10.30;44.10;;;;;;5019170;28;20463;-73
2023/01/06 01:39:37;;;;;;;7.73;3.70;;;10.30;44.10;;;;;;5025584;28;20930;-72
2023/01/06 01:42:04;;;;;;;7.80;4.40;;;10.30;43.90;;;;;;5025358;28;20467;-73
2023/01/06 01:45:07;;;;;;;7.27;4.23;;;10.30;44.00;;;;;;5021810;28;20467;-72
2023/01/06 01:47:47;;;;;;;9.13;4.77;;;10.30;44.30;;;;;;5018864;28;20483;-74
2023/01/06 01:50:23;;;;;;;6.80;3.73;;;10.30;44.10;;;;;;5021807;28;20502;-72
2023/01/06 01:52:52;;;;;;;6.70;3.90;;;10.40;44.00;;;;;;5023788;28;20461;-72
2023/01/06 01:55:20;;;;;;;6.83;3.90;;;10.40;44.10;;;;;;5023297;28;20468;-73
2023/01/06 01:57:52;;;;;;;6.90;3.80;;;10.40;43.90;;;;;;5020813;28;20458;-73
2023/01/06 02:00:20;;;;;;;7.87;4.50;;;10.40;44.00;;;;;;5025410;28;20581;-73
2023/01/06 02:02:49;;;;;;;6.87;4.10;;;10.40;44.00;;;;;;5028955;28;20517;-73
2023/01/06 02:05:19;;;;;;;7.23;4.50;;;10.40;43.90;;;;;;5024023;28;20471;-74
2023/01/06 02:07:47;;;;;;;7.83;4.33;;;10.40;44.10;;;;;;5024906;28;20470;-74
2023/01/06 02:10:18;;;;;;;7.77;4.50;;;10.40;43.90;;;;;;5027282;28;20514;-74
2023/01/06 02:12:48;;;;;;;8.60;5.00;;;10.30;43.90;;;;;;5028241;28;20470;-74
2023/01/06 02:15:16;;;;;;;8.27;5.03;;;10.40;43.80;;;;;;5024965;28;20537;-74
2023/01/06 02:18:01;;;;;;;9.93;5.97;;;10.30;43.80;;;;;;5025939;28;20470;-74
2023/01/06 02:20:45;;;;;;;8.17;5.60;;;10.30;43.80;;;;;;5026798;28;20512;-75
2023/01/06 02:23:35;;;;;;;9.10;5.93;;;10.30;43.80;;;;;;5027541;28;20462;-74
2023/01/06 02:26:57;;;;;;;10.27;6.03;;;10.30;43.90;;;;;;5026951;28;20475;-74
2023/01/06 02:29:57;;;;;;;8.73;6.13;;;10.30;43.90;;;;;;5022277;28;20462;-74
2023/01/06 02:32:43;;;;;;;10.03;6.50;;;10.20;43.80;;;;;;5019933;28;20478;-74
2023/01/06 02:35:21;;;;;;;9.60;6.57;;;10.20;43.90;;;;;;5027200;28;20470;-74
2023/01/06 02:37:58;;;;;;;10.70;7.03;;;10.10;43.80;;;;;;5027752;28;20541;-74
2023/01/06 02:40:39;;;;;;;9.37;6.27;;;10.00;44.00;;;;;;5024887;28;20501;-74
2023/01/06 02:43:15;;;;;;;11.33;7.27;;;10.00;44.10;;;;;;5025918;28;20504;-74
2023/01/06 02:45:51;;;;;;;10.97;7.50;;;9.90;44.30;;;;;;5022958;28;20573;-74
2023/01/06 02:48:27;;;;;;;11.20;7.30;;;9.80;44.20;;;;;;5026212;28;20473;-74
2023/01/06 02:51:02;;;;;;;11.57;8.10;;;9.80;44.30;;;;;;5019310;28;20490;-74
2023/01/06 02:53:36;;;;;;;11.97;7.33;;;9.70;44.20;;;;;;5020574;28;20463;-74
2023/01/06 02:56:03;;;;;;;11.83;7.80;;;9.70;44.20;;;;;;5025052;28;21443;-74
2023/01/06 02:58:38;;;;;;;11.67;7.30;;;9.60;44.40;;;;;;5022715;28;20459;-74
2023/01/06 03:01:10;;;;;;;11.40;7.90;;;9.60;44.40;;;;;;5021111;28;21006;-74
2023/01/06 03:03:43;;;;;;;11.77;8.20;;;9.50;45.10;;;;;;5020031;28;20458;-74
2023/01/06 03:06:13;;;;;;;13.07;8.10;;;9.50;44.50;;;;;;5023078;28;20526;-74
2023/01/06 03:08:43;;;;;;;13.80;8.60;;;9.50;44.40;;;;;;5023998;28;20458;-74
2023/01/06 03:11:10;;;;;;;13.07;8.80;;;9.40;44.50;;;;;;5024081;28;20490;-74
2023/01/06 03:13:44;;;;;;;13.13;9.10;;;9.40;44.30;;;;;;5021476;28;20467;-74
2023/01/06 03:16:11;;;;;;;11.37;7.77;;;9.30;44.50;;;;;;5020927;28;20463;-74
2023/01/06 03:18:42;;;;;;;14.10;9.00;;;9.30;44.40;;;;;;5027491;28;20490;-74
2023/01/06 03:21:13;;;;;;;13.10;8.53;;;9.30;44.50;;;;;;5022261;28;20486;-74
2023/01/06 03:23:41;;;;;;;11.10;7.90;;;9.20;44.50;;;;;;5023718;28;20879;-74
2023/01/06 03:26:08;;;;;;;13.03;8.50;;;9.20;44.60;;;;;;5023380;28;20613;-74
2023/01/06 03:28:35;;;;;;;17.97;10.77;;;9.10;44.80;;;;;;5026670;28;20462;-74
2023/01/06 03:31:10;;;;;;;13.97;8.70;;;9.10;44.70;;;;;;5024513;28;20483;-74
2023/01/06 03:33:47;;;;;;;14.13;9.40;;;9.10;44.70;;;;;;5020435;28;20518;-74
2023/01/06 03:36:23;;;;;;;14.20;8.67;;;9.00;44.60;;;;;;5025767;28;20969;-74
2023/01/06 03:39:00;;;;;;;12.90;8.30;;;9.00;44.80;;;;;;5021616;28;20462;-75
2023/01/06 03:44:18;;;;;;;13.40;8.30;;;8.90;44.70;;;;;;5020471;28;20443;-74
2023/01/06 03:46:52;;;;;;;13.63;8.50;;;8.90;44.70;;;;;;5023989;28;20490;-74
2023/01/06 03:49:23;;;;;;;16.93;8.90;;;8.90;45.30;;;;;;5024759;28;20991;-74
2023/01/06 03:51:56;;;;;;;15.60;8.83;;;8.90;45.50;;;;;;5022548;28;20475;-74
2023/01/06 03:54:35;;;;;;;16.20;8.67;;;8.80;45.40;;;;;;5023510;28;20459;-74
2023/01/06 03:57:05;;;;;;;13.47;8.80;;;8.80;45.60;;;;;;5028425;28;20522;-74
2023/01/06 03:59:35;;;;;;;12.80;8.33;;;8.80;45.60;;;;;;5026944;28;20494;-73
2023/01/06 04:02:04;;;;;;;15.87;9.73;;;8.80;45.50;;;;;;5021132;28;20498;-73
2023/01/06 04:04:32;;;;;;;14.40;9.47;;;8.70;45.70;;;;;;5019372;28;20947;-74
2023/01/06 04:06:59;;;;;;;14.70;9.80;;;8.70;45.70;;;;;;5026634;28;20474;-74
2023/01/06 04:09:26;;;;;;;14.90;9.80;;;8.70;46.00;;;;;;5025136;28;20463;-74
2023/01/06 04:14:37;;;;;;;13.50;8.40;;;8.70;45.80;;;;;;5023974;28;20609;-74
2023/01/06 04:17:03;;;;;;;12.77;8.50;;;8.70;45.60;;;;;;5024849;28;21009;-74
2023/01/06 04:19:32;;;;;;;15.43;8.10;;;8.70;45.50;;;;;;5026722;28;20970;-74
2023/01/06 04:21:58;;;;;;;13.40;8.87;;;8.70;45.30;;;;;;5023524;28;20473;-74
2023/01/06 04:24:27;;;;;;;13.33;8.73;;;8.80;45.30;;;;;;5023902;28;20484;-74
2023/01/06 04:26:54;;;;;;;15.23;10.10;;;8.80;45.30;;;;;;5021708;28;20480;-72
2023/01/06 04:29:20;;;;;;;16.07;9.70;;;8.80;45.20;;;;;;5027214;28;20465;-73
2023/01/06 04:31:48;;;;;;;17.67;10.30;;;8.90;45.10;;;;;;5024738;28;20490;-73
2023/01/06 04:34:14;;;;;;;16.33;10.80;;;8.90;45.20;;;;;;5019788;28;20459;-74
2023/01/06 04:36:43;;;;;;;17.63;11.90;;;8.90;45.30;;;;;;5018848;28;20465;-73
2023/01/06 04:39:09;;;;;;;19.77;11.70;;;9.00;45.30;;;;;;5025653;28;21010;-73
2023/01/06 04:41:36;;;;;;;18.20;10.83;;;9.00;45.50;;;;;;5025152;28;20489;-73
2023/01/06 04:44:03;;;;;;;16.70;11.03;;;9.00;45.60;;;;;;5024103;28;20462;-73
2023/01/06 04:46:30;;;;;;;20.33;11.50;;;9.00;45.70;;;;;;5018654;28;20475;-74
2023/01/06 04:48:56;;;;;;;18.63;11.77;;;9.10;46.10;;;;;;5023899;28;20867;-74
2023/01/06 04:51:23;;;;;;;19.93;11.80;;;9.10;46.30;;;;;;5020549;28;20478;-74
2023/01/06 04:53:51;;;;;;;18.13;11.87;;;9.20;46.40;;;;;;5020223;28;20455;-73
2023/01/06 04:56:18;;;;;;;19.00;11.33;;;9.20;46.60;;;;;;5020085;28;20887;-73
2023/01/06 04:58:45;;;;;;;19.77;11.67;;;9.20;46.70;;;;;;5022942;28;20478;-72
2023/01/06 05:01:13;;;;;;;19.40;11.83;;;9.20;46.70;;;;;;5021761;28;20485;-73
2023/01/06 05:03:40;;;;;;;18.93;12.40;;;9.20;46.60;;;;;;5019450;28;20464;-74
2023/01/06 05:06:10;;;;;;;20.70;12.73;;;9.20;46.70;;;;;;5024309;28;20455;-73
2023/01/06 05:08:38;;;;;;;17.90;11.63;;;9.20;46.60;;;;;;5022903;28;21042;-74
2023/01/06 05:11:09;;;;;;;20.27;13.73;;;9.20;46.70;;;;;;5021823;28;20483;-73
2023/01/06 05:13:36;;;;;;;19.77;12.40;;;9.20;46.80;;;;;;5022659;28;20463;-73
2023/01/06 05:16:06;;;;;;;18.50;10.57;;;9.30;46.90;;;;;;5018903;28;20470;-73
2023/01/06 05:18:35;;;;;;;21.67;13.40;;;9.20;47.00;;;;;;5022837;28;20463;-73
2023/01/06 05:21:02;;;;;;;21.20;12.30;;;9.20;46.80;;;;;;5018554;28;20488;-74
2023/01/06 05:23:29;;;;;;;19.77;11.80;;;9.20;47.00;;;;;;5025062;28;20462;-73
2023/01/06 05:25:56;;;;;;;17.37;11.20;;;9.20;47.10;;;;;;5022539;28;20463;-73
2023/01/06 05:28:24;;;;;;;19.87;12.40;;;9.20;47.10;;;;;;5024679;28;20632;-74
2023/01/06 05:30:51;;;;;;;19.23;11.37;;;9.20;47.00;;;;;;5014965;28;20484;-73
2023/01/06 05:33:17;;;;;;;20.83;11.63;;;9.20;46.90;;;;;;5021661;28;20481;-74
2023/01/06 05:35:44;;;;;;;18.70;11.03;;;9.20;46.80;;;;;;5021545;28;20460;-74
2023/01/06 05:38:11;;;;;;;17.73;10.40;;;9.30;47.00;;;;;;5023265;28;20462;-74
2023/01/06 05:40:37;;;;;;;20.77;13.00;;;9.20;46.90;;;;;;5022141;28;20471;-73
2023/01/06 05:43:04;;;;;;;18.20;10.50;;;9.20;47.00;;;;;;5022274;28;20455;-73
2023/01/06 05:45:32;;;;;;;17.07;10.60;;;9.20;47.00;;;;;;5021539;28;20455;-73
2023/01/06 05:48:01;;;;;;;17.50;10.83;;;9.20;47.00;;;;;;5020749;28;21014;-73
2023/01/06 05:50:27;;;;;;;20.10;12.37;;;9.20;47.20;;;;;;5022319;28;20503;-73
2023/01/06 05:52:54;;;;;;;19.70;11.63;;;9.20;46.90;;;;;;5023252;28;20466;-74
2023/01/06 05:55:21;;;;;;;24.40;11.07;;;9.20;46.80;;;;;;5019511;28;20468;-73
2023/01/06 05:57:48;;;;;;;18.33;10.97;;;9.20;46.80;;;;;;5024523;28;20459;-73
2023/01/06 06:00:15;;;;;;;22.30;10.97;;;9.30;46.60;;;;;;5018417;28;20828;-73
2023/01/06 06:02:43;;;;;;;22.50;10.10;;;9.30;47.30;;;;;;5045160;23;20486;-63
2023/01/06 06:05:10;;;;;;;21.37;10.57;;;9.30;46.60;;;;;;5039691;28;20474;-63
2023/01/06 06:07:37;;;;;;;23.10;10.80;;;9.30;46.40;;;;;;5039969;28;20482;-63
2023/01/06 06:10:04;;;;;;;21.30;11.03;;;9.20;46.50;;;;;;5042586;28;20492;-63
2023/01/06 06:12:32;;;;;;;25.80;10.90;;;9.20;46.50;;;;;;5042135;28;20477;-63
2023/01/06 06:14:59;;;;;;;22.97;10.73;;;9.20;46.60;;;;;;5045828;28;20923;-64
2023/01/06 06:17:25;;;;;;;19.43;11.63;;;9.20;46.50;;;;;;5044421;28;20464;-64
2023/01/06 06:19:53;;;;;;;17.93;11.67;;;9.10;46.70;;;;;;5037758;28;20473;-63
2023/01/06 06:22:20;;;;;;;19.90;11.97;;;9.10;47.00;;;;;;5040617;28;20481;-64
2023/01/06 06:24:47;;;;;;;19.40;10.77;;;9.10;47.00;;;;;;5044157;28;20462;-64
2023/01/06 06:27:14;;;;;;;22.07;10.80;;;9.10;46.90;;;;;;5044221;28;20489;-63
2023/01/06 06:29:40;;;;;;;18.90;11.30;;;9.10;46.80;;;;;;5040564;28;20462;-65
2023/01/06 06:32:07;;;;;;;21.77;10.23;;;9.00;46.90;;;;;;5038435;28;21014;-65
2023/01/06 06:34:34;;;;;;;17.00;10.07;;;9.00;47.00;;;;;;5043630;28;20469;-64
2023/01/06 06:37:02;;;;;;;20.60;10.83;;;9.00;46.90;;;;;;5039605;28;20462;-63
2023/01/06 06:39:29;;;;;;;16.80;9.63;;;9.00;47.10;;;;;;5043603;28;20497;-65
2023/01/06 06:41:56;;;;;;;19.23;11.63;;;9.00;47.30;;;;;;5042539;28;20492;-65
2023/01/06 06:44:22;;;;;;;19.00;9.37;;;9.00;47.90;;;;;;5045656;28;20989;-62
2023/01/06 06:46:49;;;;;;;15.53;9.73;;;9.00;47.10;;;;;;5048727;28;20466;-62
2023/01/06 06:49:16;;;;;;;17.10;10.50;;;9.00;47.00;;;;;;5041554;28;20485;-63
2023/01/06 06:51:46;;;;;;;18.23;11.37;;;9.00;47.10;;;;;;5043330;28;20482;-62
2023/01/06 06:54:14;;;;;;;23.17;11.20;;;9.00;46.90;;;;;;5043071;28;20472;-65
2023/01/06 06:56:41;;;;;;;16.13;10.03;;;9.00;46.70;;;;;;5046446;28;20905;-64
2023/01/06 06:59:08;;;;;;;17.03;10.13;;;9.00;46.80;;;;;;5046246;28;20847;-63
2023/01/06 07:01:34;;;;;;;17.73;9.83;;;9.00;46.90;;;;;;5044174;28;20509;-64
2023/01/06 07:04:01;;;;;;;20.53;8.93;;;9.00;46.80;;;;;;5044656;28;20462;-62
2023/01/06 07:06:28;;;;;;;21.00;10.23;;;9.00;46.80;;;;;;5048184;28;20470;-64
2023/01/06 07:08:55;;;;;;;18.00;9.50;;;9.00;46.90;;;;;;5044187;28;20483;-64
2023/01/06 07:11:24;;;;;;;17.13;10.40;;;8.90;47.00;;;;;;5045218;28;20514;-64
2023/01/06 07:13:50;;;;;;;18.07;11.53;;;8.90;46.80;;;;;;5044395;28;20460;-64
2023/01/06 07:16:18;;;;;;;17.50;9.43;;;8.90;47.00;;;;;;5047925;28;20462;-63
2023/01/06 07:18:45;;;;;;;17.30;9.80;;;9.00;46.90;;;;;;5041966;28;20498;-63
2023/01/06 07:21:12;;;;;;;19.23;10.10;;;9.00;46.70;;;;;;5044292;28;20963;-64
2023/01/06 07:23:38;;;;;;;17.40;8.50;;;9.00;46.80;;;;;;5046080;28;20458;-63
2023/01/06 07:26:05;;;;;;;13.90;8.43;;;9.00;46.90;;;;;;5044331;28;20458;-63
2023/01/06 07:28:33;;;;;;;18.50;9.67;;;8.90;47.00;;;;;;5043818;28;20485;-63
2023/01/06 07:31:01;;;;;;;15.37;8.90;;;9.00;46.80;;;;;;5045339;28;20477;-63
2023/01/06 07:33:28;;;;;;;15.67;9.17;;;8.90;46.80;;;;;;5042367;28;20820;-63
2023/01/06 07:35:56;;;;;;;17.43;10.67;;;9.00;46.80;;;;;;5044334;28;20462;-62
2023/01/06 07:38:24;;;;;;;16.40;9.43;;;9.00;46.70;;;;;;5046549;28;20454;-63
2023/01/06 07:40:51;;;;;;;15.57;8.77;;;9.00;46.80;;;;;;5044560;28;20941;-65
2023/01/06 07:43:18;;;;;;;14.27;8.20;;;9.00;46.70;;;;;;5043944;28;20531;-63
2023/01/06 07:45:48;;;;;;;18.40;8.73;;;9.00;46.60;;;;;;5045424;28;20466;-65
2023/01/06 07:48:15;;;;;;;18.20;9.13;;;9.00;46.60;;;;;;5045716;28;20478;-63
2023/01/06 07:50:41;;;;;;;15.23;8.23;;;9.00;46.40;;;;;;5045572;28;20561;-63
2023/01/06 07:53:10;;;;;;;16.00;8.27;;;9.00;46.40;;;;;;5044110;28;20482;-64
2023/01/06 07:55:37;;;;;;;15.60;7.60;;;9.00;46.50;;;;;;5041274;28;20487;-63
2023/01/06 07:58:05;;;;;;;19.13;9.00;;;9.00;46.60;;;;;;5043311;28;20453;-63
2023/01/06 08:00:33;;;;;;;15.83;8.13;;;8.90;46.50;;;;;;5044979;28;20973;-62
2023/01/06 08:03:03;;;;;;;17.00;9.97;;;9.00;46.60;;;;;;5042141;28;20877;-63
2023/01/06 08:05:30;;;;;;;17.40;9.93;;;9.00;46.70;;;;;;5044182;28;20461;-64
2023/01/06 08:07:57;;;;;;;17.67;8.43;;;8.90;46.80;;;;;;5045684;28;20474;-64
2023/01/06 08:10:24;;;;;;;16.10;9.00;;;8.90;46.90;;;;;;5045784;28;20501;-64
2023/01/06 08:12:50;;;;;;;14.20;8.37;;;9.00;46.80;;;;;;5040560;28;20856;-64
2023/01/06 08:15:17;;;;;;;14.63;8.03;;;8.90;46.80;;;;;;5038323;28;20569;-64
2023/01/06 08:17:44;;;;;;;13.70;7.47;;;9.00;46.80;;;;;;5042183;28;20458;-64
2023/01/06 08:20:12;;;;;;;15.90;8.63;;;9.00;47.10;;;;;;5043916;28;20469;-62
2023/01/06 08:22:39;;;;;;;16.83;9.87;;;9.00;47.00;;;;;;5039535;28;20474;-62
2023/01/06 08:25:06;;;;;;;15.77;9.43;;;9.00;46.70;;;;;;5042778;28;20458;-63
2023/01/06 08:27:33;;;;;;;15.17;9.37;;;9.00;46.60;;;;;;5044865;28;20482;-62
2023/01/06 08:30:00;;;;;;;15.53;8.93;;;9.10;46.60;;;;;;5042726;28;20459;-63
2023/01/06 08:32:26;;;;;;;15.63;9.57;;;9.10;46.50;;;;;;5038657;28;20487;-64
2023/01/06 08:34:53;;;;;;;13.57;8.00;;;9.10;46.30;;;;;;5043985;28;20831;-64
2023/01/06 08:37:21;;;;;;;15.00;8.07;;;9.10;46.10;;;;;;5043642;28;20465;-63
2023/01/06 08:39:48;;;;;;;14.77;8.97;;;9.10;46.10;;;;;;5043760;28;20465;-63
2023/01/06 08:42:15;;;;;;;15.77;9.20;;;9.20;46.00;;;;;;5047248;28;20489;-63
2023/01/06 08:44:41;;;;;;;13.53;7.63;;;9.20;45.80;;;;;;5038486;28;20812;-63
2023/01/06 08:47:08;;;;;;;14.47;8.80;;;9.20;45.20;;;;;;5046525;28;20458;-63
2023/01/06 08:49:35;;;;;;;14.50;8.60;;;9.20;46.10;;;;;;5044925;28;20458;-64
2023/01/06 08:52:02;;;;;;;16.03;9.13;;;9.10;45.70;;;;;;5046100;28;20490;-64
2023/01/06 08:54:30;;;;;;;13.40;7.37;;;9.20;45.50;;;;;;5043321;28;20462;-64
2023/01/06 08:56:57;;;;;;;12.23;7.63;;;9.20;45.40;;;;;;5041661;28;20835;-62
2023/01/06 08:59:24;;;;;;;15.70;8.33;;;9.20;45.70;;;;;;5042324;28;20470;-63
2023/01/06 09:01:51;;;;;;;13.30;8.67;;;9.20;45.70;;;;;;5041552;28;20565;-63
2023/01/06 09:04:18;;;;;;;13.93;8.63;;;9.20;45.50;;;;;;5044179;28;20458;-63
2023/01/06 09:06:46;;;;;;;14.93;9.60;;;9.20;45.60;;;;;;5045636;28;20806;-65
2023/01/06 09:09:13;;;;;;;15.97;10.00;;;9.20;45.50;;;;;;5044437;28;20509;-64
2023/01/06 09:11:42;;;;;;;16.27;10.27;;;9.20;45.50;;;;;;5038738;28;20485;-62
2023/01/06 09:14:10;;;;;;;15.37;9.03;;;9.20;45.60;;;;;;5040409;28;20462;-63
2023/01/06 09:16:36;;;;;;;13.13;8.10;;;9.20;45.60;;;;;;5043286;28;21172;-62
2023/01/06 09:19:03;;;;;;;14.57;8.50;;;9.20;45.50;;;;;;5040128;28;20471;-63
2023/01/06 09:21:31;;;;;;;13.97;8.10;;;9.30;45.50;;;;;;5039819;28;20482;-63
2023/01/06 09:23:57;;;;;;;14.10;8.40;;;9.30;45.60;;;;;;5037128;28;20466;-63
2023/01/06 09:26:24;;;;;;;13.37;7.90;;;9.30;45.50;;;;;;5043329;28;20466;-63
2023/01/06 09:28:52;;;;;;;14.80;8.67;;;9.30;45.70;;;;;;5042906;28;20474;-63
2023/01/06 09:31:19;;;;;;;14.07;8.87;;;9.30;45.80;;;;;;5043198;28;20478;-61
2023/01/06 09:33:46;;;;;;;12.93;8.07;;;9.30;46.00;;;;;;5037727;28;20466;-63
2023/01/06 09:36:13;;;;;;;15.10;8.67;;;9.40;45.80;;;;;;5041646;28;20457;-62
2023/01/06 09:38:40;;;;;;;12.73;7.77;;;9.40;45.70;;;;;;5045169;28;20458;-62
2023/01/06 09:41:31;;;;;;;15.77;8.17;;;9.50;45.50;;;;;;5040884;28;20969;-60
2023/01/06 09:44:09;;;;;;;15.70;8.80;;;9.60;45.50;;;;;;5032210;28;20454;-64
2023/01/06 09:46:39;;;;;;;15.70;9.23;;;9.70;45.20;;;;;;5039130;28;21025;-64
2023/01/06 09:49:09;;;;;;;14.73;8.37;;;9.70;44.90;;;;;;5042151;28;20490;-63
2023/01/06 09:51:37;;;;;;;13.23;7.20;;;9.70;44.70;;;;;;5044305;28;21037;-63
2023/01/06 09:54:13;;;;;;;13.73;7.63;;;9.70;44.70;;;;;;5042244;28;20495;-62
2023/01/06 09:56:43;;;;;;;12.37;7.50;;;9.80;44.60;;;;;;5042774;28;20473;-61
2023/01/06 09:59:19;;;;;;;13.70;7.37;;;9.80;44.50;;;;;;5043672;28;20463;-63
2023/01/06 10:01:49;;;;;;;15.43;8.70;;;9.90;44.40;;;;;;5043890;28;20476;-62
2023/01/06 10:04:19;;;;;;;12.27;7.87;;;9.90;44.10;;;;;;5044996;28;20458;-64
2023/01/06 10:06:54;;;;;;;13.53;8.17;;;9.90;44.20;;;;;;5043357;28;20458;-63
2023/01/06 10:09:31;;;;;;;14.00;8.53;;;9.90;44.10;;;;;;5034952;28;21052;-63
2023/01/06 10:12:07;;;;;;;12.37;6.97;;;9.90;43.90;;;;;;5034530;28;20883;-63
2023/01/06 10:14:45;;;;;;;10.50;6.43;;;10.00;43.90;;;;;;5039972;28;20462;-63
2023/01/06 10:17:37;;;;;;;9.37;5.40;;;10.00;44.10;;;;;;5038072;28;20466;-63
2023/01/06 10:20:14;;;;;;;9.73;5.70;;;10.00;43.90;;;;;;5044269;28;20457;-64
2023/01/06 10:22:50;;;;;;;10.60;6.37;;;10.10;43.70;;;;;;5048170;28;20492;-64
2023/01/06 10:25:19;;;;;;;10.23;5.20;;;10.20;43.30;;;;;;5043929;28;21198;-63
2023/01/06 10:27:50;;;;;;;7.33;4.13;;;10.30;42.90;;;;;;5044366;28;21188;-63
2023/01/06 10:30:22;;;;;;;8.67;4.50;;;10.40;42.30;;;;;;5043748;28;20473;-62
2023/01/06 10:32:49;;;;;;;8.80;4.60;;;10.60;41.70;;;;;;5044782;28;20511;-65
2023/01/06 10:35:19;;;;;;;8.63;4.83;;;10.60;40.90;;;;;;5041788;28;20501;-63
2023/01/06 10:37:48;;;;;;;7.10;3.60;;;10.60;40.90;;;;;;5037378;28;20473;-62
2023/01/06 10:40:21;;;;;;;8.17;5.37;;;10.60;41.00;;;;;;5037928;28;20469;-64
2023/01/06 10:42:58;;;;;;;8.73;6.43;;;10.60;40.90;;;;;;5046110;28;20489;-63
2023/01/06 10:45:31;;;;;;;9.07;5.00;;;10.70;41.00;;;;;;5045057;28;21017;-62
2023/01/06 10:47:59;;;;;;;8.10;4.77;;;10.80;40.70;;;;;;5039845;28;21167;-64
2023/01/06 10:50:27;;;;;;;9.90;5.53;;;10.90;40.80;;;;;;5045674;28;20465;-65
2023/01/06 10:52:54;;;;;;;7.47;4.20;;;10.90;40.10;;;;;;5043237;28;20837;-66
2023/01/06 10:55:36;;;;;;;8.37;4.90;;;11.00;39.80;;;;;;5045969;28;20465;-65
2023/01/06 10:58:13;;;;;;;8.03;3.93;;;11.10;39.60;;;;;;5044029;28;20469;-65
2023/01/06 11:00:56;;;;;;;8.50;4.43;;;11.20;39.00;;;;;;5041465;28;20461;-61
2023/01/06 11:03:23;;;;;;;7.07;3.93;;;11.50;39.10;;;;;;5045143;28;20496;-60
2023/01/06 11:06:00;;;;;;;7.97;4.27;;;11.80;38.00;;;;;;5045662;28;20477;-60
2023/01/06 11:08:27;;;;;;;7.23;4.00;;;11.90;36.90;;;;;;5042531;28;20489;-62
2023/01/06 11:10:56;;;;;;;6.67;3.67;;;12.00;36.90;;;;;;5043060;28;20458;-62
2023/01/06 11:13:26;;;;;;;6.70;3.63;;;12.10;36.70;;;;;;5044155;28;20466;-66
2023/01/06 11:15:55;;;;;;;6.70;3.40;;;12.20;36.00;;;;;;5045059;28;20537;-65
2023/01/06 11:18:26;;;;;;;7.60;3.73;;;12.20;35.30;;;;;;5045955;28;20946;-65
2023/01/06 11:21:08;;;;;;;6.77;2.90;;;12.20;35.70;;;;;;5039636;28;20458;-63
2023/01/06 11:23:35;;;;;;;7.50;3.30;;;12.20;35.20;;;;;;5038440;28;20473;-63
2023/01/06 11:26:13;;;;;;;6.20;3.20;;;12.20;34.70;;;;;;5041054;28;20454;-62
2023/01/06 11:28:40;;;;;;;6.47;3.47;;;12.20;35.10;;;;;;5040053;28;20474;-63
2023/01/06 11:31:15;;;;;;;6.10;3.33;;;12.30;34.90;;;;;;5035363;28;20564;-68
2023/01/06 11:33:48;;;;;;;6.37;3.17;;;12.20;35.00;;;;;;5040416;28;20545;-62
2023/01/06 11:36:17;;;;;;;6.57;3.87;;;12.30;35.00;;;;;;5043240;28;20459;-68
2023/01/06 11:38:47;;;;;;;6.50;3.50;;;12.30;34.30;;;;;;5039983;28;20451;-69
2023/01/06 11:41:23;;;;;;;5.53;2.63;;;12.10;34.60;;;;;;5038429;28;20566;-64
2023/01/06 11:43:50;;;;;;;5.97;3.00;;;12.10;34.90;;;;;;5043317;28;20462;-65
2023/01/06 11:46:22;;;;;;;5.67;2.90;;;12.00;34.70;;;;;;5041229;28;20462;-70
2023/01/06 11:48:55;;;;;;;6.90;3.23;;;11.90;35.00;;;;;;5043608;28;20497;-69
2023/01/06 11:51:32;;;;;;;5.90;3.17;;;11.80;35.20;;;;;;5041786;28;20482;-63
2023/01/06 11:54:00;;;;;;;5.70;3.00;;;11.60;35.90;;;;;;5039213;28;20453;-62
2023/01/06 11:56:27;;;;;;;5.90;3.10;;;11.60;36.10;;;;;;5044812;28;20702;-62
2023/01/06 11:59:02;;;;;;;7.00;3.30;;;11.50;36.60;;;;;;5043747;28;20454;-62
2023/01/06 12:01:38;;;;;;;6.50;3.60;;;11.60;36.80;;;;;;5043972;28;20484;-63
2023/01/06 12:04:15;;;;;;;7.80;4.20;;;11.70;36.90;;;;;;5044934;28;20454;-62
2023/01/06 12:06:44;;;;;;;5.90;2.67;;;11.90;36.60;;;;;;5042012;28;20462;-63
2023/01/06 12:09:17;;;;;;;19.87;12.33;;;12.00;36.10;;;;;;5042268;28;20484;-64
2023/01/06 12:11:48;;;;;;;9.73;5.23;;;12.10;36.10;;;;;;5041225;28;20493;-63
2023/01/06 12:14:17;;;;;;;5.70;3.20;;;12.20;35.70;;;;;;5042570;28;21388;-61
2023/01/06 12:16:55;;;;;;;5.67;2.80;;;12.40;35.30;;;;;;5053826;22;21001;-65
2023/01/06 12:19:27;;;;;;;5.50;2.80;;;12.50;35.10;;;;;;5040479;28;20458;-64
2023/01/06 12:21:55;;;;;;;5.97;2.77;;;12.60;34.60;;;;;;5041876;28;20466;-65
2023/01/06 12:24:22;;;;;;;6.30;3.10;;;12.80;34.30;;;;;;5041049;28;20493;-66
2023/01/06 12:26:50;;;;;;;5.87;2.50;;;12.90;34.00;;;;;;5038404;28;20501;-65
2023/01/06 12:29:19;;;;;;;6.13;3.03;;;13.20;32.80;;;;;;5045366;28;20485;-64
2023/01/06 12:31:59;;;;;;;5.70;3.10;;;13.30;31.70;;;;;;5043565;28;21213;-65
2023/01/06 12:34:30;;;;;;;5.87;3.20;;;13.20;31.60;;;;;;5041013;28;20464;-64
2023/01/06 12:37:03;;;;;;;5.03;2.43;;;13.20;31.30;;;;;;5038929;28;20550;-64
2023/01/06 12:39:36;;;;;;;7.30;3.00;;;13.10;31.20;;;;;;5042419;28;20462;-65
2023/01/06 12:42:07;;;;;;;7.20;3.47;;;13.00;31.60;;;;;;5043193;28;20516;-64
2023/01/06 12:44:43;;;;;;;11.93;5.30;;;12.90;32.20;;;;;;5043787;28;20454;-65
2023/01/06 12:47:16;;;;;;;5.10;2.50;;;12.70;32.40;;;;;;5043710;28;20485;-64
2023/01/06 12:49:48;;;;;;;4.60;2.17;;;12.70;33.30;;;;;;5044610;28;21049;-64
2023/01/06 12:52:20;;;;;;;5.23;1.93;;;12.60;32.90;;;;;;5044663;28;20493;-64
2023/01/06 12:54:52;;;;;;;5.20;2.60;;;12.40;33.20;;;;;;5041696;28;20462;-65
2023/01/06 12:57:32;;;;;;;4.80;1.80;;;12.30;33.70;;;;;;5044070;28;20891;-64
2023/01/06 13:00:12;;;;;;;4.50;1.90;;;12.30;34.10;;;;;;5041294;28;20484;-65
2023/01/06 13:02:54;;;;;;;4.80;1.90;;;12.30;34.30;;;;;;5040012;28;20489;-65
2023/01/06 13:05:36;;;;;;;5.13;2.00;;;12.30;34.30;;;;;;5040513;28;20478;-65